Time;durP1;ratioP1;P1;durP2;ratioP2;P2;SDS_P1;SDS_P2;PMS_P1;PMS_P2;Temp;Humidity;BMP_temperature;BMP_pressure;BME280_temperature;BME280_humidity;BME280_pressure;Samples;Min_cycle;Max_cycle;Signal;HPM_P1;HPM_P2
2023/08/23 03:01:06;;;;;;;2.17;1.95;;;26.50;60.90;;;;;;5556838;23;45420;-84
2023/08/23 03:03:32;;;;;;;1.98;1.77;;;26.50;61.10;;;;;;4826839;29;45680;-84
2023/08/23 03:05:58;;;;;;;2.38;2.17;;;26.50;61.10;;;;;;4812113;29;45145;-85
2023/08/23 03:08:24;;;;;;;2.50;2.05;;;26.50;61.10;;;;;;4840826;29;45595;-84
2023/08/23 03:10:49;;;;;;;2.17;1.98;;;26.50;61.00;;;;;;4835883;29;46548;-86
2023/08/23 03:13:15;;;;;;;3.58;2.13;;;26.50;61.00;;;;;;4840727;29;45180;-86
2023/08/23 03:15:41;;;;;;;1.90;1.70;;;26.50;61.00;;;;;;4833224;29;45681;-85
2023/08/23 03:18:06;;;;;;;2.30;2.00;;;26.50;61.00;;;;;;4834509;29;47259;-85
2023/08/23 03:20:32;;;;;;;2.05;1.90;;;26.50;61.00;;;;;;4819966;29;45679;-84
2023/08/23 03:22:58;;;;;;;4.22;1.98;;;26.50;61.00;;;;;;4826312;29;45588;-84
2023/08/23 03:25:24;;;;;;;2.30;2.10;;;26.50;61.00;;;;;;4825315;29;46406;-84
2023/08/23 03:27:52;;;;;;;2.00;1.90;;;26.50;61.70;;;;;;4792961;29;47048;-86
2023/08/23 03:30:21;;;;;;;2.17;1.88;;;26.50;60.90;;;;;;4837817;29;45527;-85
2023/08/23 03:32:47;;;;;;;1.73;1.63;;;26.50;60.90;;;;;;4835374;29;45523;-85
2023/08/23 03:35:13;;;;;;;2.50;2.00;;;26.50;60.90;;;;;;4815433;29;45374;-85
2023/08/23 03:37:57;;;;;;;2.60;2.05;;;26.50;60.90;;;;;;4842459;29;45458;-87
2023/08/23 03:40:43;;;;;;;2.35;2.15;;;26.50;60.90;;;;;;4855384;29;44729;-87
2023/08/23 03:43:29;;;;;;;2.03;1.83;;;26.40;60.90;;;;;;4840388;29;44648;-86
2023/08/23 03:46:15;;;;;;;2.25;1.85;;;26.40;60.90;;;;;;4836594;29;45604;-84
2023/08/23 03:49:01;;;;;;;2.90;2.15;;;26.40;60.90;;;;;;4826722;29;45234;-84
2023/08/23 03:51:46;;;;;;;2.80;1.98;;;26.40;60.80;;;;;;4848088;29;44764;-84
2023/08/23 03:54:33;;;;;;;3.05;1.95;;;26.40;60.90;;;;;;4831354;29;45015;-85
2023/08/23 03:56:58;;;;;;;3.25;1.90;;;26.40;60.80;;;;;;4836079;29;45099;-84
2023/08/23 03:59:24;;;;;;;3.10;2.35;;;26.50;60.90;;;;;;4851540;29;47393;-86
2023/08/23 04:01:50;;;;;;;2.00;1.80;;;26.40;60.80;;;;;;4828566;29;45332;-86
2023/08/23 04:04:16;;;;;;;2.20;1.80;;;26.50;60.90;;;;;;4842342;29;45536;-87
2023/08/23 04:06:41;;;;;;;2.58;2.00;;;26.50;60.90;;;;;;4853010;29;45237;-86
2023/08/23 04:09:07;;;;;;;3.55;1.75;;;26.40;60.70;;;;;;4871064;29;45331;-84
2023/08/23 04:11:32;;;;;;;2.28;2.05;;;26.50;60.80;;;;;;4851718;29;45207;-85
2023/08/23 04:13:58;;;;;;;2.42;1.88;;;26.40;60.70;;;;;;4841900;29;45268;-85
2023/08/23 04:16:24;;;;;;;2.90;1.98;;;26.40;60.70;;;;;;4841092;29;45599;-84
2023/08/23 04:18:49;;;;;;;2.05;1.85;;;26.40;60.70;;;;;;4854603;29;46832;-84
2023/08/23 04:21:15;;;;;;;2.25;1.77;;;26.40;60.70;;;;;;4835799;29;45581;-87
2023/08/23 04:23:40;;;;;;;4.75;2.28;;;26.40;60.80;;;;;;4853313;29;45048;-86
2023/08/23 04:26:06;;;;;;;1.83;1.73;;;26.40;60.70;;;;;;4863744;29;46060;-84
2023/08/23 04:28:32;;;;;;;2.70;2.08;;;26.40;60.70;;;;;;4872979;29;45765;-84
2023/08/23 04:31:01;;;;;;;2.20;2.00;;;26.40;60.70;;;;;;4822550;29;45094;-85
2023/08/23 04:33:26;;;;;;;2.42;1.98;;;26.40;60.60;;;;;;4855185;29;44970;-85
2023/08/23 04:35:52;;;;;;;2.65;2.13;;;26.40;60.60;;;;;;4839573;29;45293;-88
2023/08/23 04:38:17;;;;;;;1.80;1.65;;;26.40;60.70;;;;;;4849675;29;46948;-86
2023/08/23 04:40:43;;;;;;;2.70;2.08;;;26.40;60.70;;;;;;4856427;29;45637;-84
2023/08/23 04:43:08;;;;;;;2.92;2.13;;;26.40;60.60;;;;;;4837570;29;45248;-85
2023/08/23 04:45:38;;;;;;;2.58;2.17;;;26.40;60.60;;;;;;4850628;29;44878;-85
2023/08/23 04:48:04;;;;;;;2.95;1.83;;;26.40;60.60;;;;;;4841303;29;47123;-87
2023/08/23 04:50:29;;;;;;;3.00;1.95;;;26.40;60.60;;;;;;4830625;29;46153;-86
2023/08/23 04:52:55;;;;;;;2.55;1.90;;;26.40;60.70;;;;;;4832152;29;44734;-86
2023/08/23 04:55:21;;;;;;;2.40;2.08;;;26.40;60.60;;;;;;4839983;29;45616;-84
2023/08/23 04:57:46;;;;;;;1.90;1.73;;;26.40;60.60;;;;;;4836463;29;47021;-85
2023/08/23 05:00:13;;;;;;;2.05;1.70;;;26.40;60.60;;;;;;4828897;29;46430;-85
2023/08/23 05:02:39;;;;;;;2.17;1.65;;;26.40;60.60;;;;;;4827198;29;45378;-86
2023/08/23 05:05:05;;;;;;;2.42;2.22;;;26.40;60.60;;;;;;4874034;29;45921;-88
2023/08/23 05:07:31;;;;;;;2.90;2.08;;;26.40;60.60;;;;;;4812722;29;45942;-87
2023/08/23 05:09:56;;;;;;;2.53;2.15;;;26.40;60.60;;;;;;4822711;29;45365;-87
2023/08/23 05:12:22;;;;;;;3.60;1.80;;;26.40;60.60;;;;;;4836493;29;45450;-86
2023/08/23 05:14:47;;;;;;;2.50;1.98;;;26.40;60.60;;;;;;4868812;29;45220;-84
2023/08/23 05:17:13;;;;;;;3.17;2.08;;;26.40;60.60;;;;;;4847580;29;46587;-84
2023/08/23 05:19:39;;;;;;;2.63;2.08;;;26.40;60.60;;;;;;4845785;29;46031;-84
2023/08/23 05:22:04;;;;;;;2.20;2.00;;;26.40;60.60;;;;;;4840795;29;46302;-84
2023/08/23 05:24:30;;;;;;;2.15;1.95;;;26.40;60.60;;;;;;4837747;29;45959;-84
2023/08/23 05:26:55;;;;;;;2.83;2.10;;;26.40;60.50;;;;;;4839216;29;47749;-85
2023/08/23 05:29:21;;;;;;;2.05;1.85;;;26.40;60.50;;;;;;4840911;29;45261;-87
2023/08/23 05:31:46;;;;;;;1.98;1.88;;;26.40;60.50;;;;;;4852555;29;44927;-85
2023/08/23 05:34:12;;;;;;;4.05;2.28;;;26.30;60.40;;;;;;4853311;29;45351;-85
2023/08/23 05:36:37;;;;;;;2.42;2.00;;;26.40;61.30;;;;;;4833016;29;45836;-85
2023/08/23 05:39:03;;;;;;;1.75;1.65;;;26.40;60.50;;;;;;4826894;29;45297;-84
2023/08/23 05:41:28;;;;;;;2.20;2.00;;;26.40;60.50;;;;;;4837826;29;45001;-84
2023/08/23 05:43:54;;;;;;;3.22;2.00;;;26.30;60.40;;;;;;4816350;29;44933;-86
2023/08/23 05:46:20;;;;;;;2.35;2.08;;;26.30;60.40;;;;;;4852367;29;45264;-86
2023/08/23 05:48:45;;;;;;;2.10;1.90;;;26.30;60.50;;;;;;4843129;29;45603;-85
2023/08/23 05:51:11;;;;;;;1.98;1.75;;;26.30;60.40;;;;;;4829703;29;45304;-85
2023/08/23 05:53:36;;;;;;;2.22;1.92;;;26.30;60.40;;;;;;4855827;29;45439;-86
2023/08/23 05:56:02;;;;;;;1.95;1.80;;;26.30;60.40;;;;;;4826934;29;47292;-85
2023/08/23 05:58:28;;;;;;;3.42;1.98;;;26.40;60.50;;;;;;4827891;29;44628;-85
2023/08/23 06:00:55;;;;;;;1.95;1.85;;;26.30;60.40;;;;;;4809905;29;45217;-87
2023/08/23 06:03:21;;;;;;;2.20;1.95;;;26.30;60.40;;;;;;4865079;29;45031;-85
2023/08/23 06:05:46;;;;;;;2.88;1.90;;;26.40;60.50;;;;;;4850912;29;45253;-85
2023/08/23 06:08:12;;;;;;;2.38;1.75;;;26.40;60.50;;;;;;4847186;29;45187;-85
2023/08/23 06:10:37;;;;;;;1.85;1.73;;;26.30;60.40;;;;;;4811129;29;45580;-85
2023/08/23 06:13:03;;;;;;;2.45;1.90;;;26.30;60.40;;;;;;4840802;29;44986;-86
2023/08/23 06:15:29;;;;;;;2.22;1.77;;;26.30;60.40;;;;;;4823969;29;47120;-85
2023/08/23 06:17:55;;;;;;;2.10;1.77;;;26.30;60.40;;;;;;4856614;29;45465;-85
2023/08/23 06:20:20;;;;;;;2.95;1.85;;;26.30;60.40;;;;;;4841701;29;45447;-85
2023/08/23 06:22:46;;;;;;;2.50;2.00;;;26.40;60.50;;;;;;4843164;29;45257;-85
2023/08/23 06:25:15;;;;;;;2.20;2.00;;;26.30;60.40;;;;;;4852604;29;47126;-85
2023/08/23 06:27:41;;;;;;;2.25;1.75;;;26.30;60.40;;;;;;4841629;29;45549;-86
2023/08/23 06:30:07;;;;;;;2.42;1.85;;;26.30;60.40;;;;;;4841770;29;45280;-86
2023/08/23 06:32:32;;;;;;;2.47;2.28;;;26.30;60.40;;;;;;4828289;29;45487;-82
2023/08/23 06:34:58;;;;;;;2.13;1.92;;;26.30;60.40;;;;;;4845563;29;46241;-87
2023/08/23 06:37:24;;;;;;;1.88;1.50;;;26.30;60.40;;;;;;4835349;29;45486;-86
2023/08/23 06:39:49;;;;;;;2.08;1.88;;;26.30;60.40;;;;;;4844345;29;45582;-84
2023/08/23 06:42:17;;;;;;;2.50;2.30;;;26.30;60.40;;;;;;4843361;29;46938;-85
2023/08/23 06:44:45;;;;;;;2.75;2.00;;;26.30;60.40;;;;;;4845801;29;45379;-86
2023/08/23 06:47:11;;;;;;;2.95;1.88;;;26.30;60.40;;;;;;4844112;29;45520;-86
2023/08/23 06:49:36;;;;;;;2.88;2.30;;;26.30;60.40;;;;;;4850132;29;45195;-88
2023/08/23 06:52:02;;;;;;;2.00;1.90;;;26.30;60.40;;;;;;4855931;29;45561;-84
2023/08/23 06:54:28;;;;;;;2.33;1.83;;;26.30;60.30;;;;;;4857520;29;45697;-82
2023/08/23 06:56:53;;;;;;;2.83;1.90;;;26.30;60.40;;;;;;4833174;29;44894;-85
2023/08/23 06:59:19;;;;;;;2.47;2.20;;;26.30;60.40;;;;;;4858313;29;45279;-88
2023/08/23 07:01:45;;;;;;;2.53;1.95;;;26.30;60.40;;;;;;4851388;29;45293;-85
2023/08/23 07:04:10;;;;;;;2.03;1.60;;;26.30;60.40;;;;;;4832627;29;46792;-87
2023/08/23 07:06:36;;;;;;;1.65;1.52;;;26.30;60.30;;;;;;4823786;29;45978;-87
2023/08/23 07:09:01;;;;;;;2.25;2.00;;;26.30;60.30;;;;;;4820946;29;44649;-86
2023/08/23 07:11:27;;;;;;;2.03;1.60;;;26.30;60.40;;;;;;4842998;29;44784;-86
2023/08/23 07:13:52;;;;;;;2.22;2.03;;;26.30;60.30;;;;;;4842923;29;47180;-85
2023/08/23 07:16:18;;;;;;;2.50;2.00;;;26.30;60.30;;;;;;4828309;29;45272;-85
2023/08/23 07:18:44;;;;;;;2.20;1.85;;;26.30;60.40;;;;;;4861594;29;45025;-85
2023/08/23 07:21:09;;;;;;;3.10;1.95;;;26.30;60.30;;;;;;4843148;29;45006;-84
2023/08/23 07:23:35;;;;;;;2.22;2.03;;;26.30;60.30;;;;;;4846722;29;46734;-84
2023/08/23 07:26:02;;;;;;;2.20;2.00;;;26.30;60.30;;;;;;4845399;29;45375;-84
2023/08/23 07:28:28;;;;;;;2.45;1.90;;;26.30;60.30;;;;;;4832345;29;45106;-86
2023/08/23 07:30:57;;;;;;;1.92;1.55;;;26.30;60.30;;;;;;4846917;29;45666;-86
2023/08/23 07:33:25;;;;;;;2.30;1.90;;;26.30;60.30;;;;;;4843593;29;46819;-87
2023/08/23 07:35:55;;;;;;;2.58;2.08;;;26.30;60.20;;;;;;4844359;29;45517;-86
2023/08/23 07:38:21;;;;;;;2.22;2.00;;;26.30;60.20;;;;;;4846553;29;45188;-85
2023/08/23 07:40:47;;;;;;;2.50;2.20;;;26.30;60.30;;;;;;4833155;29;45602;-84
2023/08/23 07:43:12;;;;;;;2.75;1.95;;;26.30;60.30;;;;;;4864389;29;47178;-85
2023/08/23 07:45:38;;;;;;;2.42;1.80;;;26.30;60.30;;;;;;4833425;29;44908;-86
2023/08/23 07:48:04;;;;;;;1.90;1.80;;;26.30;60.20;;;;;;4844607;29;46108;-86
2023/08/23 07:50:30;;;;;;;2.10;1.90;;;26.30;60.20;;;;;;4836233;29;45032;-86
2023/08/23 07:52:55;;;;;;;2.38;2.08;;;26.30;60.20;;;;;;4835577;29;47018;-86
2023/08/23 07:55:21;;;;;;;2.00;1.85;;;26.30;60.20;;;;;;4857882;29;45206;-84
2023/08/23 07:57:46;;;;;;;2.08;1.88;;;26.30;60.20;;;;;;4836517;29;45595;-85
2023/08/23 08:00:13;;;;;;;1.92;1.83;;;26.30;60.20;;;;;;4847362;29;45258;-86
2023/08/23 08:02:38;;;;;;;2.67;1.80;;;26.30;60.20;;;;;;4842188;29;45530;-90
2023/08/23 08:05:04;;;;;;;2.08;1.80;;;26.30;60.20;;;;;;4857873;29;48478;-90
2023/08/23 08:07:30;;;;;;;2.30;1.90;;;26.30;60.20;;;;;;4828918;29;45172;-86
2023/08/23 08:09:57;;;;;;;2.20;2.00;;;26.30;60.20;;;;;;4842191;29;44987;-85
2023/08/23 08:12:22;;;;;;;2.80;1.75;;;26.30;60.20;;;;;;4848776;29;47193;-86
2023/08/23 08:14:48;;;;;;;2.05;1.70;;;26.30;60.20;;;;;;4859158;29;45159;-85
2023/08/23 08:17:14;;;;;;;1.80;1.70;;;26.30;60.20;;;;;;4860099;29;45410;-85
2023/08/23 08:19:39;;;;;;;2.58;1.70;;;26.30;60.20;;;;;;4827834;29;45026;-87
2023/08/23 08:22:05;;;;;;;2.47;1.92;;;26.30;60.20;;;;;;4831221;29;48046;-85
2023/08/23 08:24:31;;;;;;;2.00;1.73;;;26.30;60.20;;;;;;4843532;29;45444;-84
2023/08/23 08:26:57;;;;;;;2.70;1.88;;;26.30;60.20;;;;;;4855743;29;45480;-86
2023/08/23 08:29:22;;;;;;;2.35;1.73;;;26.30;60.20;;;;;;4834724;29;45425;-84
2023/08/23 08:31:50;;;;;;;1.77;1.67;;;26.30;60.20;;;;;;4849378;29;46282;-85
2023/08/23 08:34:17;;;;;;;4.40;1.95;;;26.30;60.20;;;;;;4839852;29;45021;-86
2023/08/23 08:36:42;;;;;;;2.50;1.80;;;26.30;60.20;;;;;;4852181;29;44800;-85
2023/08/23 08:39:08;;;;;;;2.20;2.00;;;26.30;60.10;;;;;;4830413;29;44969;-86
2023/08/23 08:41:33;;;;;;;1.88;1.77;;;26.30;60.20;;;;;;4840128;29;48835;-84
2023/08/23 08:43:59;;;;;;;1.92;1.65;;;26.30;60.20;;;;;;4842289;29;44942;-84
2023/08/23 08:46:25;;;;;;;2.65;1.80;;;26.30;60.10;;;;;;4832311;29;45543;-88
2023/08/23 08:48:51;;;;;;;2.10;1.65;;;26.30;60.20;;;;;;4843199;29;45317;-86
2023/08/23 08:51:19;;;;;;;3.03;1.63;;;26.30;60.10;;;;;;4834085;29;47117;-85
2023/08/23 08:53:49;;;;;;;2.45;1.85;;;26.30;60.10;;;;;;4849491;29;45475;-85
2023/08/23 08:56:16;;;;;;;2.60;1.60;;;26.30;60.10;;;;;;4831047;29;45865;-85
2023/08/23 08:58:41;;;;;;;2.65;2.00;;;26.30;60.10;;;;;;4841437;29;45660;-87
2023/08/23 09:01:07;;;;;;;1.80;1.70;;;26.30;60.20;;;;;;4858900;29;46452;-84
2023/08/23 09:03:33;;;;;;;2.17;1.90;;;26.30;60.10;;;;;;4833819;29;45110;-86
2023/08/23 09:05:58;;;;;;;1.75;1.65;;;26.30;60.10;;;;;;4841601;29;47769;-88
2023/08/23 09:08:24;;;;;;;2.00;1.80;;;26.30;60.10;;;;;;4859067;29;45298;-86
2023/08/23 09:10:50;;;;;;;1.80;1.63;;;26.30;60.20;;;;;;4855886;29;45351;-87
2023/08/23 09:13:15;;;;;;;2.30;1.65;;;26.30;60.10;;;;;;4832945;29;45297;-87
2023/08/23 09:15:41;;;;;;;2.10;1.90;;;26.30;60.10;;;;;;4829433;29;45073;-87
2023/08/23 09:18:07;;;;;;;1.48;1.38;;;26.30;60.10;;;;;;4829332;29;45363;-87
2023/08/23 09:20:33;;;;;;;2.67;2.00;;;26.30;60.10;;;;;;4818043;29;47501;-85
2023/08/23 09:22:58;;;;;;;1.95;1.73;;;26.30;60.20;;;;;;4860776;29;45460;-86
2023/08/23 09:25:24;;;;;;;2.53;1.77;;;26.30;60.10;;;;;;4871686;29;45089;-86
2023/08/23 09:27:52;;;;;;;2.67;1.83;;;26.30;60.10;;;;;;4825794;29;45052;-88
2023/08/23 09:30:18;;;;;;;1.90;1.80;;;26.30;60.10;;;;;;4870374;29;46111;-88
2023/08/23 09:32:44;;;;;;;2.60;1.90;;;26.30;60.10;;;;;;4840103;29;45369;-85
2023/08/23 09:35:11;;;;;;;2.03;1.77;;;26.30;60.10;;;;;;4842921;29;45071;-87
2023/08/23 09:37:40;;;;;;;1.83;1.73;;;26.30;60.10;;;;;;4831646;29;45033;-86
2023/08/23 09:40:24;;;;;;;1.90;1.65;;;26.30;60.10;;;;;;4841139;29;45837;-89
2023/08/23 09:42:50;;;;;;;1.95;1.38;;;26.30;60.10;;;;;;4830291;29;45426;-86
2023/08/23 09:45:17;;;;;;;1.77;1.60;;;26.30;60.10;;;;;;4860650;29;45480;-87
2023/08/23 09:48:02;;;;;;;1.70;1.60;;;26.30;60.10;;;;;;4856687;29;45287;-85
2023/08/23 09:50:28;;;;;;;1.58;1.48;;;26.30;59.90;;;;;;4822387;29;47034;-88
2023/08/23 09:53:01;;;;;;;1.60;1.50;;;26.30;60.10;;;;;;4842829;29;45590;-85
2023/08/23 09:55:27;;;;;;;2.00;1.80;;;26.40;60.10;;;;;;4842422;29;45420;-86
2023/08/23 09:57:56;;;;;;;4.22;1.77;;;26.30;60.10;;;;;;4825776;29;45578;-86
2023/08/23 10:00:22;;;;;;;3.22;1.88;;;26.30;60.10;;;;;;4847329;29;45923;-86
2023/08/23 10:02:47;;;;;;;2.40;1.65;;;26.30;60.10;;;;;;4857816;29;45452;-87
2023/08/23 10:05:13;;;;;;;1.98;1.70;;;26.40;60.20;;;;;;4818126;29;45170;-89
2023/08/23 10:07:42;;;;;;;1.65;1.55;;;26.30;60.10;;;;;;4858866;29;45164;-84
2023/08/23 10:10:09;;;;;;;1.98;1.63;;;26.40;60.10;;;;;;4846236;29;47277;-84
2023/08/23 10:12:43;;;;;;;2.20;1.77;;;26.30;60.10;;;;;;4843690;29;45563;-84
2023/08/23 10:15:09;;;;;;;2.08;1.80;;;26.40;60.10;;;;;;4840750;29;45332;-85
2023/08/23 10:17:36;;;;;;;2.70;1.63;;;26.30;60.10;;;;;;4834777;29;45325;-85
2023/08/23 10:20:06;;;;;;;2.30;1.50;;;26.30;60.10;;;;;;4837646;29;45893;-84
2023/08/23 10:22:32;;;;;;;1.75;1.65;;;26.40;60.10;;;;;;4838453;29;45261;-84
2023/08/23 10:24:57;;;;;;;2.50;1.60;;;26.30;60.10;;;;;;4849919;29;45253;-84
2023/08/23 10:27:26;;;;;;;1.60;1.50;;;26.30;60.10;;;;;;4851777;29;45216;-85
2023/08/23 10:29:51;;;;;;;1.67;1.55;;;26.40;60.10;;;;;;4863299;29;45632;-86
2023/08/23 10:32:17;;;;;;;1.85;1.48;;;26.30;60.10;;;;;;4832255;29;45336;-86
2023/08/23 10:34:42;;;;;;;1.70;1.60;;;26.30;60.10;;;;;;4859346;29;45325;-89
2023/08/23 10:37:15;;;;;;;2.00;1.65;;;26.40;60.10;;;;;;4864332;29;45539;-85
2023/08/23 10:39:45;;;;;;;;;;;26.40;60.10;;;;;;4835950;29;46930;-85
2023/08/23 10:42:11;;;;;;;1.58;1.48;;;26.30;60.10;;;;;;4838968;29;45529;-85
2023/08/23 10:45:04;;;;;;;1.98;1.80;;;26.30;60.10;;;;;;4824720;29;45331;-85
2023/08/23 10:47:31;;;;;;;2.13;1.80;;;26.40;60.10;;;;;;4836972;29;45624;-85
2023/08/23 10:49:57;;;;;;;1.80;1.70;;;26.40;60.10;;;;;;4855810;29;47392;-86
2023/08/23 10:52:23;;;;;;;1.98;1.70;;;26.40;60.10;;;;;;4830349;29;45230;-87
2023/08/23 10:54:48;;;;;;;2.00;1.80;;;26.40;60.10;;;;;;4846621;29;45365;-86
2023/08/23 10:57:14;;;;;;;2.58;1.80;;;26.40;60.10;;;;;;4859442;29;45283;-87
2023/08/23 10:59:39;;;;;;;1.88;1.70;;;26.40;60.10;;;;;;4839594;29;47098;-86
2023/08/23 11:02:06;;;;;;;2.00;1.58;;;26.40;60.10;;;;;;4837299;29;45585;-85
2023/08/23 11:04:32;;;;;;;2.15;1.80;;;26.40;60.20;;;;;;4861774;29;44731;-86
2023/08/23 11:06:57;;;;;;;1.75;1.65;;;26.40;60.10;;;;;;4839816;29;45684;-86
2023/08/23 11:09:23;;;;;;;2.13;1.90;;;26.40;60.10;;;;;;4861986;29;46132;-84
2023/08/23 11:11:48;;;;;;;1.83;1.70;;;26.40;60.20;;;;;;4834866;29;45842;-85
2023/08/23 11:14:14;;;;;;;2.05;1.85;;;26.40;60.20;;;;;;4847015;29;45468;-87
2023/08/23 11:16:40;;;;;;;1.58;1.48;;;26.40;60.20;;;;;;4823168;29;45072;-85
2023/08/23 11:19:06;;;;;;;2.03;1.65;;;26.40;60.10;;;;;;4858633;29;47119;-85
2023/08/23 11:21:31;;;;;;;2.28;1.77;;;26.40;60.10;;;;;;4845434;29;45572;-88
2023/08/23 11:23:57;;;;;;;1.75;1.63;;;26.40;60.10;;;;;;4859416;29;45364;-85
2023/08/23 11:26:23;;;;;;;2.10;1.88;;;26.40;60.10;;;;;;4839760;29;45692;-88
2023/08/23 11:28:50;;;;;;;1.92;1.70;;;26.40;60.10;;;;;;4847114;29;47091;-86
2023/08/23 11:31:16;;;;;;;2.05;1.85;;;26.40;60.20;;;;;;4842054;29;45296;-85
2023/08/23 11:33:41;;;;;;;1.77;1.67;;;26.40;60.90;;;;;;4842419;29;45371;-88
2023/08/23 11:36:09;;;;;;;1.83;1.73;;;26.40;60.10;;;;;;4842327;29;45280;-87
2023/08/23 11:38:35;;;;;;;2.25;1.77;;;26.40;60.10;;;;;;4857416;29;45678;-88
2023/08/23 11:41:00;;;;;;;1.95;1.77;;;26.40;60.10;;;;;;4853620;29;45273;-85
2023/08/23 11:43:27;;;;;;;1.85;1.75;;;26.40;60.10;;;;;;4849517;29;44873;-85
2023/08/23 11:45:53;;;;;;;2.25;1.77;;;26.40;60.10;;;;;;4839012;29;44940;-85
2023/08/23 11:48:20;;;;;;;1.80;1.70;;;26.40;60.10;;;;;;4830205;29;46354;-86
2023/08/23 11:50:45;;;;;;;1.85;1.67;;;26.40;60.10;;;;;;4850606;29;45043;-85
2023/08/23 11:53:12;;;;;;;1.60;1.48;;;26.40;60.10;;;;;;4849823;29;45279;-87
2023/08/23 11:55:37;;;;;;;2.03;1.63;;;26.40;60.10;;;;;;4867071;29;45041;-84
2023/08/23 11:58:03;;;;;;;2.53;1.95;;;26.40;60.10;;;;;;4861931;29;45419;-84
2023/08/23 12:00:29;;;;;;;2.20;2.00;;;26.40;60.10;;;;;;4839105;29;45412;-89
2023/08/23 12:02:54;;;;;;;1.80;1.70;;;26.40;60.10;;;;;;4827322;29;45043;-85
2023/08/23 12:05:20;;;;;;;1.88;1.77;;;26.40;60.10;;;;;;4829720;29;45076;-86
2023/08/23 12:07:46;;;;;;;3.30;1.88;;;26.40;60.10;;;;;;4834023;29;48006;-84
2023/08/23 12:10:11;;;;;;;2.20;1.83;;;26.40;60.10;;;;;;4820851;29;45299;-85
2023/08/23 12:12:37;;;;;;;2.17;1.75;;;26.40;60.10;;;;;;4850135;29;44744;-87
2023/08/23 12:15:07;;;;;;;2.03;1.83;;;26.40;60.10;;;;;;4851893;29;45492;-89
2023/08/23 12:17:33;;;;;;;1.77;1.67;;;26.50;60.10;;;;;;4851499;29;45241;-85
2023/08/23 12:19:59;;;;;;;1.85;1.75;;;26.40;60.10;;;;;;4859003;29;45168;-86
2023/08/23 12:22:24;;;;;;;1.98;1.70;;;26.40;60.10;;;;;;4836531;29;45238;-87
2023/08/23 12:24:50;;;;;;;1.73;1.63;;;26.40;60.10;;;;;;4843462;29;45501;-85
2023/08/23 12:27:15;;;;;;;2.15;1.60;;;26.40;60.10;;;;;;4855525;29;46939;-85
2023/08/23 12:29:41;;;;;;;1.63;1.52;;;26.40;60.10;;;;;;4860149;29;45019;-85
2023/08/23 12:32:07;;;;;;;1.60;1.50;;;26.40;60.10;;;;;;4822930;29;45139;-85
2023/08/23 12:34:33;;;;;;;1.58;1.48;;;26.40;60.10;;;;;;4829409;29;45453;-86
2023/08/23 12:36:58;;;;;;;1.85;1.75;;;26.40;60.00;;;;;;4856963;29;45977;-86
2023/08/23 12:39:24;;;;;;;2.65;1.98;;;26.40;60.00;;;;;;4851997;29;45133;-85
2023/08/23 12:41:49;;;;;;;2.03;1.80;;;26.40;60.00;;;;;;4836455;29;45302;-86
2023/08/23 12:44:15;;;;;;;1.67;1.58;;;26.50;60.10;;;;;;4868902;29;45694;-86
2023/08/23 12:46:40;;;;;;;1.92;1.80;;;26.40;60.10;;;;;;4842184;29;45535;-85
2023/08/23 12:49:07;;;;;;;1.92;1.67;;;26.40;60.30;;;;;;4844430;29;45252;-85
2023/08/23 12:51:34;;;;;;;1.67;1.58;;;26.40;60.00;;;;;;4847872;29;44913;-86
2023/08/23 12:53:59;;;;;;;3.42;1.70;;;26.40;60.00;;;;;;4828981;29;45159;-85
2023/08/23 12:56:25;;;;;;;1.55;1.42;;;26.40;60.00;;;;;;4853797;29;46894;-86
2023/08/23 12:58:50;;;;;;;1.73;1.63;;;26.40;60.00;;;;;;4847030;29;44670;-86
2023/08/23 13:01:16;;;;;;;1.70;1.60;;;26.40;60.00;;;;;;4865928;29;45330;-84
2023/08/23 13:03:41;;;;;;;2.00;1.83;;;26.40;60.00;;;;;;4852541;29;45620;-88
2023/08/23 13:06:07;;;;;;;2.13;1.73;;;26.40;60.00;;;;;;4859804;29;45529;-85
2023/08/23 13:08:33;;;;;;;1.90;1.70;;;26.40;60.00;;;;;;4851003;29;45239;-85
2023/08/23 13:10:59;;;;;;;2.47;2.05;;;26.40;59.90;;;;;;4848175;29;45568;-86
2023/08/23 13:13:26;;;;;;;1.75;1.65;;;26.40;59.90;;;;;;4844408;29;45184;-86
2023/08/23 13:15:52;;;;;;;2.33;1.67;;;26.40;60.70;;;;;;4837192;29;47201;-87
2023/08/23 13:18:17;;;;;;;1.92;1.42;;;26.40;60.00;;;;;;4829757;29;45514;-86
2023/08/23 13:20:43;;;;;;;2.20;1.83;;;26.40;60.00;;;;;;4856094;29;44776;-85
2023/08/23 13:23:08;;;;;;;1.45;1.35;;;26.40;59.90;;;;;;4832477;29;45190;-84
2023/08/23 13:25:34;;;;;;;2.08;1.88;;;26.40;59.90;;;;;;4829035;29;48048;-86
2023/08/23 13:27:59;;;;;;;2.10;1.80;;;26.40;60.00;;;;;;4860942;29;45302;-87
2023/08/23 13:30:26;;;;;;;2.08;1.88;;;26.50;60.00;;;;;;4861014;29;45453;-88
2023/08/23 13:32:52;;;;;;;2.33;1.70;;;26.40;59.90;;;;;;4866355;29;44937;-86
2023/08/23 13:35:17;;;;;;;2.17;1.90;;;26.40;60.00;;;;;;4850734;29;45337;-86
2023/08/23 13:37:43;;;;;;;1.73;1.63;;;26.40;59.90;;;;;;4845770;29;45344;-86
2023/08/23 13:40:09;;;;;;;2.03;1.83;;;26.40;59.90;;;;;;4851433;29;44762;-85
2023/08/23 13:42:34;;;;;;;1.98;1.45;;;26.40;59.90;;;;;;4832445;29;45623;-86
2023/08/23 13:45:00;;;;;;;2.13;1.70;;;26.40;59.90;;;;;;4838600;29;47946;-85
2023/08/23 13:47:25;;;;;;;1.38;1.27;;;26.40;59.90;;;;;;4825763;29;44783;-88
2023/08/23 13:49:52;;;;;;;1.98;1.88;;;26.40;59.90;;;;;;4841138;29;45841;-89
2023/08/23 13:52:18;;;;;;;2.13;1.70;;;26.40;59.90;;;;;;4835378;29;44882;-86
2023/08/23 13:54:43;;;;;;;2.00;1.77;;;26.40;59.90;;;;;;4859276;29;47025;-84
2023/08/23 13:57:09;;;;;;;1.70;1.55;;;26.40;59.90;;;;;;4843549;29;45286;-86
2023/08/23 13:59:34;;;;;;;1.95;1.75;;;26.40;59.90;;;;;;4847020;29;44939;-86
2023/08/23 14:02:00;;;;;;;1.75;1.65;;;26.40;59.90;;;;;;4837277;29;45635;-86
2023/08/23 14:04:27;;;;;;;2.30;1.80;;;26.40;59.90;;;;;;4845246;29;47300;-86
2023/08/23 14:06:52;;;;;;;1.77;1.67;;;26.40;59.90;;;;;;4858252;29;45205;-86
2023/08/23 14:09:18;;;;;;;1.65;1.55;;;26.40;59.90;;;;;;4843693;29;45256;-86
2023/08/23 14:11:55;;;;;;;1.70;1.60;;;26.40;59.90;;;;;;4836578;29;44744;-86
2023/08/23 14:14:21;;;;;;;1.77;1.67;;;26.40;59.80;;;;;;4870798;29;45194;-86
2023/08/23 14:16:46;;;;;;;1.77;1.67;;;26.40;59.90;;;;;;4820665;29;45243;-84
2023/08/23 14:19:12;;;;;;;1.52;1.42;;;26.40;59.90;;;;;;4859318;29;45333;-86
2023/08/23 14:21:37;;;;;;;2.25;1.90;;;26.40;59.90;;;;;;4817199;29;45545;-85
2023/08/23 14:24:03;;;;;;;2.10;1.80;;;26.40;59.90;;;;;;4844634;29;45683;-85
2023/08/23 14:26:29;;;;;;;2.53;1.90;;;26.40;59.90;;;;;;4841282;29;45546;-88
2023/08/23 14:28:54;;;;;;;1.75;1.65;;;26.40;59.90;;;;;;4847851;29;44789;-85
2023/08/23 14:31:20;;;;;;;1.58;1.48;;;26.40;59.90;;;;;;4843170;29;45256;-84
2023/08/23 14:33:45;;;;;;;1.92;1.70;;;26.50;59.90;;;;;;4812589;29;48273;-85
2023/08/23 14:36:11;;;;;;;1.60;1.50;;;26.40;59.90;;;;;;4859920;29;45468;-86
2023/08/23 14:38:36;;;;;;;1.70;1.60;;;26.40;59.90;;;;;;4854750;29;44995;-85
2023/08/23 14:41:02;;;;;;;1.88;1.77;;;26.50;59.90;;;;;;4860931;29;45061;-85
2023/08/23 14:43:28;;;;;;;2.38;1.67;;;26.40;59.90;;;;;;4822708;29;47333;-87
2023/08/23 14:45:53;;;;;;;2.38;1.75;;;26.40;59.80;;;;;;4839952;29;45115;-84
2023/08/23 14:48:19;;;;;;;1.80;1.70;;;26.40;59.90;;;;;;4845807;29;45574;-85
2023/08/23 14:50:44;;;;;;;1.60;1.50;;;26.40;59.80;;;;;;4854487;29;44683;-87
2023/08/23 14:53:10;;;;;;;2.00;1.80;;;26.40;59.80;;;;;;4843287;29;45815;-86
2023/08/23 14:55:36;;;;;;;1.70;1.60;;;26.40;59.80;;;;;;4825158;29;45672;-87
2023/08/23 14:58:02;;;;;;;1.83;1.45;;;26.40;59.80;;;;;;4832031;29;45256;-86
2023/08/23 15:00:29;;;;;;;1.85;1.75;;;26.40;59.80;;;;;;4845722;29;46140;-88
2023/08/23 15:02:55;;;;;;;2.22;1.65;;;26.40;59.80;;;;;;4837544;29;45597;-86
2023/08/23 15:05:21;;;;;;;2.08;1.70;;;26.50;59.90;;;;;;4847356;29;45584;-86
2023/08/23 15:07:47;;;;;;;2.15;1.75;;;26.40;59.80;;;;;;4859605;29;45212;-86
2023/08/23 15:10:13;;;;;;;1.77;1.67;;;26.40;59.80;;;;;;4835990;29;45255;-89
2023/08/23 15:12:38;;;;;;;3.25;2.00;;;26.40;59.80;;;;;;4851382;29;47398;-86
2023/08/23 15:15:04;;;;;;;1.63;1.52;;;26.40;59.80;;;;;;4825019;29;45197;-87
2023/08/23 15:17:30;;;;;;;1.85;1.65;;;26.40;60.50;;;;;;4857090;29;45579;-88
2023/08/23 15:19:55;;;;;;;2.33;1.77;;;26.40;59.80;;;;;;4837868;29;45536;-86
2023/08/23 15:22:22;;;;;;;2.35;1.83;;;26.40;59.80;;;;;;4850884;29;46842;-85
2023/08/23 15:24:48;;;;;;;2.05;1.85;;;26.40;59.80;;;;;;4864832;29;45628;-86
2023/08/23 15:27:13;;;;;;;1.73;1.63;;;26.40;59.80;;;;;;4841633;29;46423;-85
2023/08/23 15:29:43;;;;;;;2.08;1.80;;;26.40;59.70;;;;;;4830814;29;44831;-85
2023/08/23 15:32:10;;;;;;;2.00;1.70;;;26.40;59.80;;;;;;4845107;29;46300;-85
2023/08/23 15:34:36;;;;;;;1.70;1.60;;;26.40;59.80;;;;;;4834161;29;44746;-85
2023/08/23 15:37:03;;;;;;;1.52;1.42;;;26.40;59.80;;;;;;4843493;29;45328;-85
2023/08/23 15:39:29;;;;;;;1.70;1.60;;;26.40;59.70;;;;;;4822318;29;45161;-85
2023/08/23 15:41:56;;;;;;;2.50;1.88;;;26.50;59.80;;;;;;4830526;29;47295;-85
2023/08/23 15:44:25;;;;;;;1.75;1.50;;;26.40;59.80;;;;;;4828388;29;45598;-85